Airfield :
LOGIN :

Register | Disclaimer

   EN    FR    IT 

 










Legend :    VFR   Marginal VFR   IFR   Intensive IFR   Very Intensive IFR
Visi :
Ceiling :
>= 8 km
>= 3000ft
5 to 8 km
1000 to 3000 ft
1500m to 5 km
500 to 1000 ft
800 to 1500m
200 to 500 ft
< 800m
< 200 ft
Symbols :   Thunderstorms  Fog  Heavy snow  Heavy precipitations  Wind > 20 kt
SIGMETs :     Misc.  Thunderstorms  Icing  Turbulence  Mountain Waves  Volcanic Ashes







- Airport Elevation : 117 ft
- IATA code : NWI
- Download approach charts


EGSH - Norwich

CURRENT METAR :
  • 261150Z 21013G23KT 160V240 9999 SCT027 21/14 Q1006 TEMPO RA BKN012

EXPIRED METARs :
  • 261120Z 20011KT 140V240 9999 -RA FEW030 21/14 Q1006
  • 261050Z 19010KT 110V240 9999 FEW031 21/14 Q1006 NOSIG
  • 261020Z 19008KT 150V250 9999 FEW031 21/14 Q1007 NOSIG
  • 260950Z 17008KT 120V220 9999 FEW014 20/16 Q1007 TEMPO BKN014
  • 260920Z 17008KT 140V220 9999 SCT014 19/16 Q1007 TEMPO BKN014

TAF TAF EGSH
Valid from the 26 at 12:00 until the 26 at 21:00 UTC


261101Z 2612/2621 19012KT 9999 SCT030
TEMPO 2612/2618 8000 RA BKN012
PROB30
TEMPO 2612/2618 4000 RADZ BKN007
TEMPO 2618/2620 BKN014
ATIS : +44 1603 420 640
No reported NOTAMs for that airfield.



MET'MAP, your aeronautical weather chart ! - Copyright ORBIFLY December 2007 - Disclaimer

ORBIFLY MET'MAP TEAM :

Programming & Development : Alexandra Zaïnal
Concept & Development : Baudouin d'Aumeries
Co-Development & Prog : Marc-Olivier Méhu
Technical & hardware support : Manuel Goepfert

Contact : metmap@orbifly.com




SOURCES & CREDITS :

   NOAA